sensor_id;sensor_type;location;lat;lon;timestamp;P1;durP1;ratioP1;P2;durP2;ratioP2
54458;SDS011;40368;49.350;8.152;2023-03-19T00:00:25;17;;;40;;
54458;SDS011;40368;49.350;8.152;2023-03-19T00:01:25;16;;;65;;
54458;SDS011;40368;49.350;8.152;2023-03-19T00:02:25;18;;;66;;
54458;SDS011;40368;49.350;8.152;2023-03-19T00:03:25;16;;;41;;
54458;SDS011;40368;49.350;8.152;2023-03-19T00:04:25;16;;;39;;
54458;SDS011;40368;49.350;8.152;2023-03-19T00:05:25;18;;;32;;
54458;SDS011;40368;49.350;8.152;2023-03-19T00:06:25;15;;;44;;
54458;SDS011;40368;49.350;8.152;2023-03-19T00:07:25;15;;;30;;
54458;SDS011;40368;49.350;8.152;2023-03-19T00:08:25;14;;;56;;
54458;SDS011;40368;49.350;8.152;2023-03-19T00:09:25;19;;;58;;
54458;SDS011;40368;49.350;8.152;2023-03-19T00:10:25;14;;;27;;
54458;SDS011;40368;49.350;8.152;2023-03-19T00:11:25;15;;;44;;
54458;SDS011;40368;49.350;8.152;2023-03-19T00:12:25;16;;;65;;
54458;SDS011;40368;49.350;8.152;2023-03-19T00:13:25;17;;;45;;
54458;SDS011;40368;49.350;8.152;2023-03-19T00:14:25;13;;;32;;
54458;SDS011;40368;49.350;8.152;2023-03-19T00:15:25;12;;;44;;
54458;SDS011;40368;49.350;8.152;2023-03-19T00:16:25;15;;;24;;
54458;SDS011;40368;49.350;8.152;2023-03-19T00:17:25;15;;;43;;
54458;SDS011;40368;49.350;8.152;2023-03-19T00:18:25;17;;;47;;
54458;SDS011;40368;49.350;8.152;2023-03-19T00:19:25;16;;;34;;
54458;SDS011;40368;49.350;8.152;2023-03-19T00:20:25;14;;;62;;
54458;SDS011;40368;49.350;8.152;2023-03-19T00:21:25;15;;;39;;
54458;SDS011;40368;49.350;8.152;2023-03-19T00:22:25;14;;;22;;
54458;SDS011;40368;49.350;8.152;2023-03-19T00:23:25;19;;;53;;
54458;SDS011;40368;49.350;8.152;2023-03-19T00:24:25;15;;;39;;
54458;SDS011;40368;49.350;8.152;2023-03-19T00:25:25;17;;;47;;
54458;SDS011;40368;49.350;8.152;2023-03-19T00:26:25;20;;;51;;
54458;SDS011;40368;49.350;8.152;2023-03-19T00:27:25;16;;;51;;
54458;SDS011;40368;49.350;8.152;2023-03-19T00:28:25;14;;;31;;
54458;SDS011;40368;49.350;8.152;2023-03-19T00:29:25;16;;;30;;
54458;SDS011;40368;49.350;8.152;2023-03-19T00:30:25;14;;;25;;
54458;SDS011;40368;49.350;8.152;2023-03-19T00:31:25;11;;;42;;
54458;SDS011;40368;49.350;8.152;2023-03-19T00:32:25;13;;;34;;
54458;SDS011;40368;49.350;8.152;2023-03-19T00:33:25;14;;;99;;
54458;SDS011;40368;49.350;8.152;2023-03-19T00:34:25;16;;;39;;
54458;SDS011;40368;49.350;8.152;2023-03-19T00:35:25;14;;;69;;
54458;SDS011;40368;49.350;8.152;2023-03-19T00:36:25;15;;;32;;
54458;SDS011;40368;49.350;8.152;2023-03-19T00:37:25;14;;;32;;
54458;SDS011;40368;49.350;8.152;2023-03-19T00:38:25;13;;;48;;
54458;SDS011;40368;49.350;8.152;2023-03-19T00:39:25;13;;;37;;
54458;SDS011;40368;49.350;8.152;2023-03-19T00:40:25;13;;;36;;
54458;SDS011;40368;49.350;8.152;2023-03-19T00:41:25;16;;;43;;
54458;SDS011;40368;49.350;8.152;2023-03-19T00:42:25;17;;;51;;
54458;SDS011;40368;49.350;8.152;2023-03-19T00:43:25;15;;;33;;
54458;SDS011;40368;49.350;8.152;2023-03-19T00:44:25;15;;;30;;
54458;SDS011;40368;49.350;8.152;2023-03-19T00:45:25;13;;;50;;
54458;SDS011;40368;49.350;8.152;2023-03-19T00:46:25;15;;;45;;
54458;SDS011;40368;49.350;8.152;2023-03-19T00:47:25;13;;;26;;
54458;SDS011;40368;49.350;8.152;2023-03-19T00:48:25;16;;;50;;
54458;SDS011;40368;49.350;8.152;2023-03-19T00:49:25;14;;;28;;
54458;SDS011;40368;49.350;8.152;2023-03-19T00:50:25;15;;;33;;
54458;SDS011;40368;49.350;8.152;2023-03-19T00:51:25;15;;;47;;
54458;SDS011;40368;49.350;8.152;2023-03-19T00:52:25;16;;;23;;
54458;SDS011;40368;49.350;8.152;2023-03-19T00:53:25;16;;;34;;
54458;SDS011;40368;49.350;8.152;2023-03-19T00:54:25;12;;;32;;
54458;SDS011;40368;49.350;8.152;2023-03-19T00:55:25;13;;;36;;
54458;SDS011;40368;49.350;8.152;2023-03-19T00:56:25;14;;;43;;
54458;SDS011;40368;49.350;8.152;2023-03-19T00:57:25;18;;;40;;
54458;SDS011;40368;49.350;8.152;2023-03-19T00:58:25;14;;;28;;
54458;SDS011;40368;49.350;8.152;2023-03-19T00:59:25;19;;;53;;
54458;SDS011;40368;49.350;8.152;2023-03-19T01:00:25;16;;;39;;
54458;SDS011;40368;49.350;8.152;2023-03-19T01:01:25;14;;;55;;
54458;SDS011;40368;49.350;8.152;2023-03-19T01:03:25;14;;;48;;
54458;SDS011;40368;49.350;8.152;2023-03-19T01:04:25;14;;;30;;
54458;SDS011;40368;49.350;8.152;2023-03-19T01:05:25;19;;;77;;
54458;SDS011;40368;49.350;8.152;2023-03-19T01:06:25;14;;;61;;
54458;SDS011;40368;49.350;8.152;2023-03-19T01:07:25;16;;;61;;
54458;SDS011;40368;49.350;8.152;2023-03-19T01:08:25;16;;;65;;
54458;SDS011;40368;49.350;8.152;2023-03-19T01:09:25;12;;;33;;
54458;SDS011;40368;49.350;8.152;2023-03-19T01:10:25;18;;;38;;
54458;SDS011;40368;49.350;8.152;2023-03-19T01:11:25;17;;;56;;
54458;SDS011;40368;49.350;8.152;2023-03-19T01:12:25;14;;;34;;
54458;SDS011;40368;49.350;8.152;2023-03-19T01:13:25;14;;;39;;
54458;SDS011;40368;49.350;8.152;2023-03-19T01:14:25;16;;;40;;
54458;SDS011;40368;49.350;8.152;2023-03-19T01:15:25;14;;;29;;
54458;SDS011;40368;49.350;8.152;2023-03-19T01:16:25;16;;;52;;
54458;SDS011;40368;49.350;8.152;2023-03-19T01:17:25;14;;;45;;
54458;SDS011;40368;49.350;8.152;2023-03-19T01:18:25;14;;;43;;
54458;SDS011;40368;49.350;8.152;2023-03-19T01:19:25;15;;;46;;
54458;SDS011;40368;49.350;8.152;2023-03-19T01:20:25;15;;;28;;
54458;SDS011;40368;49.350;8.152;2023-03-19T01:21:25;20;;;46;;
54458;SDS011;40368;49.350;8.152;2023-03-19T01:22:25;16;;;40;;
54458;SDS011;40368;49.350;8.152;2023-03-19T01:23:26;19;;;40;;
54458;SDS011;40368;49.350;8.152;2023-03-19T01:24:27;15;;;60;;
54458;SDS011;40368;49.350;8.152;2023-03-19T01:25:25;14;;;65;;
54458;SDS011;40368;49.350;8.152;2023-03-19T01:26:25;16;;;43;;
54458;SDS011;40368;49.350;8.152;2023-03-19T01:30:25;16;;;41;;
54458;SDS011;40368;49.350;8.152;2023-03-19T01:31:25;13;;;37;;
54458;SDS011;40368;49.350;8.152;2023-03-19T01:32:25;19;;;61;;
54458;SDS011;40368;49.350;8.152;2023-03-19T01:33:25;15;;;48;;
54458;SDS011;40368;49.350;8.152;2023-03-19T01:34:25;14;;;34;;
54458;SDS011;40368;49.350;8.152;2023-03-19T01:35:25;12;;;20;;
54458;SDS011;40368;49.350;8.152;2023-03-19T01:36:25;12;;;32;;
54458;SDS011;40368;49.350;8.152;2023-03-19T01:37:25;14;;;27;;
54458;SDS011;40368;49.350;8.152;2023-03-19T01:38:25;18;;;30;;
54458;SDS011;40368;49.350;8.152;2023-03-19T01:39:25;17;;;42;;
54458;SDS011;40368;49.350;8.152;2023-03-19T01:40:25;13;;;59;;
54458;SDS011;40368;49.350;8.152;2023-03-19T01:41:25;12;;;46;;
54458;SDS011;40368;49.350;8.152;2023-03-19T01:42:25;15;;;60;;
54458;SDS011;40368;49.350;8.152;2023-03-19T01:43:26;17;;;46;;
54458;SDS011;40368;49.350;8.152;2023-03-19T01:44:25;18;;;37;;
54458;SDS011;40368;49.350;8.152;2023-03-19T01:45:28;23;;;70;;
54458;SDS011;40368;49.350;8.152;2023-03-19T01:46:26;50;;;113;;
54458;SDS011;40368;49.350;8.152;2023-03-19T01:47:27;49;;;103;;
54458;SDS011;40368;49.350;8.152;2023-03-19T01:48:26;21;;;72;;
54458;SDS011;40368;49.350;8.152;2023-03-19T01:49:25;17;;;39;;
54458;SDS011;40368;49.350;8.152;2023-03-19T01:50:26;13;;;49;;
54458;SDS011;40368;49.350;8.152;2023-03-19T01:51:25;13;;;32;;
54458;SDS011;40368;49.350;8.152;2023-03-19T01:52:26;17;;;62;;
54458;SDS011;40368;49.350;8.152;2023-03-19T01:53:26;15;;;43;;
54458;SDS011;40368;49.350;8.152;2023-03-19T01:54:25;16;;;48;;
54458;SDS011;40368;49.350;8.152;2023-03-19T01:55:25;15;;;56;;
54458;SDS011;40368;49.350;8.152;2023-03-19T01:56:26;17;;;47;;
54458;SDS011;40368;49.350;8.152;2023-03-19T01:57:25;13;;;35;;
54458;SDS011;40368;49.350;8.152;2023-03-19T01:58:25;13;;;38;;
54458;SDS011;40368;49.350;8.152;2023-03-19T01:59:26;12;;;35;;
54458;SDS011;40368;49.350;8.152;2023-03-19T02:00:25;12;;;38;;
54458;SDS011;40368;49.350;8.152;2023-03-19T02:01:25;11;;;14;;
54458;SDS011;40368;49.350;8.152;2023-03-19T02:02:26;13;;;20;;
54458;SDS011;40368;49.350;8.152;2023-03-19T02:03:25;15;;;21;;
54458;SDS011;40368;49.350;8.152;2023-03-19T02:04:25;15;;;25;;
54458;SDS011;40368;49.350;8.152;2023-03-19T02:05:25;14;;;20;;
54458;SDS011;40368;49.350;8.152;2023-03-19T02:06:25;16;;;54;;
54458;SDS011;40368;49.350;8.152;2023-03-19T02:07:25;16;;;49;;
54458;SDS011;40368;49.350;8.152;2023-03-19T02:08:25;17;;;41;;
54458;SDS011;40368;49.350;8.152;2023-03-19T02:09:26;25;;;48;;
54458;SDS011;40368;49.350;8.152;2023-03-19T02:10:25;18;;;40;;
54458;SDS011;40368;49.350;8.152;2023-03-19T02:11:25;13;;;36;;
54458;SDS011;40368;49.350;8.152;2023-03-19T02:12:25;17;;;52;;
54458;SDS011;40368;49.350;8.152;2023-03-19T02:13:25;16;;;33;;
54458;SDS011;40368;49.350;8.152;2023-03-19T02:14:25;24;;;63;;
54458;SDS011;40368;49.350;8.152;2023-03-19T02:15:25;21;;;52;;
54458;SDS011;40368;49.350;8.152;2023-03-19T02:16:25;39;;;68;;
54458;SDS011;40368;49.350;8.152;2023-03-19T02:17:25;60;;;134;;
54458;SDS011;40368;49.350;8.152;2023-03-19T02:18:25;209;;;338;;
54458;SDS011;40368;49.350;8.152;2023-03-19T02:19:26;225;;;354;;
54458;SDS011;40368;49.350;8.152;2023-03-19T02:20:26;105;;;148;;
54458;SDS011;40368;49.350;8.152;2023-03-19T02:21:25;84;;;189;;
54458;SDS011;40368;49.350;8.152;2023-03-19T02:22:26;44;;;72;;
54458;SDS011;40368;49.350;8.152;2023-03-19T02:23:29;27;;;71;;
54458;SDS011;40368;49.350;8.152;2023-03-19T02:24:26;27;;;50;;
54458;SDS011;40368;49.350;8.152;2023-03-19T02:25:26;63;;;110;;
54458;SDS011;40368;49.350;8.152;2023-03-19T02:26:25;28;;;74;;
54458;SDS011;40368;49.350;8.152;2023-03-19T02:27:25;20;;;68;;
54458;SDS011;40368;49.350;8.152;2023-03-19T02:28:25;25;;;46;;
54458;SDS011;40368;49.350;8.152;2023-03-19T02:29:25;31;;;68;;
54458;SDS011;40368;49.350;8.152;2023-03-19T02:30:26;19;;;45;;
54458;SDS011;40368;49.350;8.152;2023-03-19T02:31:25;23;;;51;;
54458;SDS011;40368;49.350;8.152;2023-03-19T02:32:25;29;;;57;;
54458;SDS011;40368;49.350;8.152;2023-03-19T02:33:25;36;;;83;;
54458;SDS011;40368;49.350;8.152;2023-03-19T02:34:33;25;;;58;;
54458;SDS011;40368;49.350;8.152;2023-03-19T02:35:25;22;;;52;;
54458;SDS011;40368;49.350;8.152;2023-03-19T02:36:26;29;;;63;;
54458;SDS011;40368;49.350;8.152;2023-03-19T02:37:26;69;;;130;;
54458;SDS011;40368;49.350;8.152;2023-03-19T02:38:25;137;;;240;;
54458;SDS011;40368;49.350;8.152;2023-03-19T02:39:26;53;;;85;;
54458;SDS011;40368;49.350;8.152;2023-03-19T02:40:26;27;;;68;;
54458;SDS011;40368;49.350;8.152;2023-03-19T02:41:25;24;;;33;;
54458;SDS011;40368;49.350;8.152;2023-03-19T02:42:26;22;;;44;;
54458;SDS011;40368;49.350;8.152;2023-03-19T02:43:25;24;;;38;;
54458;SDS011;40368;49.350;8.152;2023-03-19T02:44:25;27;;;38;;
54458;SDS011;40368;49.350;8.152;2023-03-19T02:45:26;23;;;48;;
54458;SDS011;40368;49.350;8.152;2023-03-19T02:46:25;24;;;71;;
54458;SDS011;40368;49.350;8.152;2023-03-19T02:47:25;27;;;58;;
54458;SDS011;40368;49.350;8.152;2023-03-19T02:48:25;23;;;35;;
54458;SDS011;40368;49.350;8.152;2023-03-19T02:49:25;25;;;39;;
54458;SDS011;40368;49.350;8.152;2023-03-19T02:50:25;31;;;90;;
54458;SDS011;40368;49.350;8.152;2023-03-19T02:51:25;52;;;113;;
54458;SDS011;40368;49.350;8.152;2023-03-19T02:52:25;60;;;118;;
54458;SDS011;40368;49.350;8.152;2023-03-19T02:53:25;59;;;137;;
54458;SDS011;40368;49.350;8.152;2023-03-19T02:54:25;143;;;286;;
54458;SDS011;40368;49.350;8.152;2023-03-19T02:55:25;33;;;57;;
54458;SDS011;40368;49.350;8.152;2023-03-19T02:56:25;23;;;27;;
54458;SDS011;40368;49.350;8.152;2023-03-19T02:57:25;31;;;64;;
54458;SDS011;40368;49.350;8.152;2023-03-19T02:58:25;26;;;54;;
54458;SDS011;40368;49.350;8.152;2023-03-19T02:59:25;29;;;57;;
54458;SDS011;40368;49.350;8.152;2023-03-19T03:00:25;26;;;81;;
54458;SDS011;40368;49.350;8.152;2023-03-19T03:01:25;21;;;32;;
54458;SDS011;40368;49.350;8.152;2023-03-19T03:02:25;20;;;45;;
54458;SDS011;40368;49.350;8.152;2023-03-19T03:03:25;24;;;44;;
54458;SDS011;40368;49.350;8.152;2023-03-19T03:04:25;20;;;51;;
54458;SDS011;40368;49.350;8.152;2023-03-19T03:05:25;19;;;29;;
54458;SDS011;40368;49.350;8.152;2023-03-19T03:06:25;20;;;65;;
54458;SDS011;40368;49.350;8.152;2023-03-19T03:07:25;21;;;40;;
54458;SDS011;40368;49.350;8.152;2023-03-19T03:08:25;16;;;27;;
54458;SDS011;40368;49.350;8.152;2023-03-19T03:09:25;18;;;35;;
54458;SDS011;40368;49.350;8.152;2023-03-19T03:10:25;18;;;71;;
54458;SDS011;40368;49.350;8.152;2023-03-19T03:11:25;17;;;34;;
54458;SDS011;40368;49.350;8.152;2023-03-19T03:12:25;18;;;52;;
54458;SDS011;40368;49.350;8.152;2023-03-19T03:13:26;19;;;43;;
54458;SDS011;40368;49.350;8.152;2023-03-19T03:14:25;19;;;28;;
54458;SDS011;40368;49.350;8.152;2023-03-19T03:15:25;17;;;71;;
54458;SDS011;40368;49.350;8.152;2023-03-19T03:16:25;20;;;55;;
54458;SDS011;40368;49.350;8.152;2023-03-19T03:17:25;16;;;50;;
54458;SDS011;40368;49.350;8.152;2023-03-19T03:18:25;13;;;47;;
54458;SDS011;40368;49.350;8.152;2023-03-19T03:19:25;16;;;32;;
54458;SDS011;40368;49.350;8.152;2023-03-19T03:20:25;14;;;40;;
54458;SDS011;40368;49.350;8.152;2023-03-19T03:21:25;17;;;74;;
54458;SDS011;40368;49.350;8.152;2023-03-19T03:22:25;14;;;26;;
54458;SDS011;40368;49.350;8.152;2023-03-19T03:23:25;22;;;60;;
54458;SDS011;40368;49.350;8.152;2023-03-19T03:24:25;18;;;56;;
54458;SDS011;40368;49.350;8.152;2023-03-19T03:25:25;21;;;49;;
54458;SDS011;40368;49.350;8.152;2023-03-19T03:26:25;144;;;292;;
54458;SDS011;40368;49.350;8.152;2023-03-19T03:27:25;80;;;160;;
54458;SDS011;40368;49.350;8.152;2023-03-19T03:28:25;66;;;127;;
54458;SDS011;40368;49.350;8.152;2023-03-19T03:30:25;71;;;135;;
54458;SDS011;40368;49.350;8.152;2023-03-19T03:31:25;33;;;83;;
54458;SDS011;40368;49.350;8.152;2023-03-19T03:32:25;103;;;168;;
54458;SDS011;40368;49.350;8.152;2023-03-19T03:33:25;61;;;127;;
54458;SDS011;40368;49.350;8.152;2023-03-19T03:34:26;60;;;114;;
54458;SDS011;40368;49.350;8.152;2023-03-19T03:35:25;29;;;66;;
54458;SDS011;40368;49.350;8.152;2023-03-19T03:36:25;26;;;49;;
54458;SDS011;40368;49.350;8.152;2023-03-19T03:37:25;22;;;76;;
54458;SDS011;40368;49.350;8.152;2023-03-19T03:38:25;20;;;78;;
54458;SDS011;40368;49.350;8.152;2023-03-19T03:39:25;37;;;68;;
54458;SDS011;40368;49.350;8.152;2023-03-19T03:40:25;30;;;74;;
54458;SDS011;40368;49.350;8.152;2023-03-19T03:41:25;110;;;215;;
54458;SDS011;40368;49.350;8.152;2023-03-19T03:42:25;79;;;154;;
54458;SDS011;40368;49.350;8.152;2023-03-19T03:43:25;41;;;75;;
54458;SDS011;40368;49.350;8.152;2023-03-19T03:44:25;35;;;88;;
54458;SDS011;40368;49.350;8.152;2023-03-19T03:45:25;325;;;583;;
54458;SDS011;40368;49.350;8.152;2023-03-19T03:46:25;163;;;290;;
54458;SDS011;40368;49.350;8.152;2023-03-19T03:47:25;112;;;205;;
54458;SDS011;40368;49.350;8.152;2023-03-19T03:48:25;65;;;127;;
54458;SDS011;40368;49.350;8.152;2023-03-19T03:49:25;119;;;199;;
54458;SDS011;40368;49.350;8.152;2023-03-19T03:51:25;87;;;147;;
54458;SDS011;40368;49.350;8.152;2023-03-19T03:52:25;88;;;144;;
54458;SDS011;40368;49.350;8.152;2023-03-19T03:53:25;30;;;55;;
54458;SDS011;40368;49.350;8.152;2023-03-19T03:54:25;20;;;42;;
54458;SDS011;40368;49.350;8.152;2023-03-19T03:55:25;24;;;51;;
54458;SDS011;40368;49.350;8.152;2023-03-19T03:56:25;27;;;43;;
54458;SDS011;40368;49.350;8.152;2023-03-19T03:57:25;24;;;47;;
54458;SDS011;40368;49.350;8.152;2023-03-19T03:58:25;23;;;56;;
54458;SDS011;40368;49.350;8.152;2023-03-19T03:59:25;25;;;38;;
54458;SDS011;40368;49.350;8.152;2023-03-19T04:00:25;30;;;58;;
54458;SDS011;40368;49.350;8.152;2023-03-19T04:01:25;20;;;28;;
54458;SDS011;40368;49.350;8.152;2023-03-19T04:02:25;20;;;34;;
54458;SDS011;40368;49.350;8.152;2023-03-19T04:03:25;19;;;48;;
54458;SDS011;40368;49.350;8.152;2023-03-19T04:04:25;17;;;38;;
54458;SDS011;40368;49.350;8.152;2023-03-19T04:05:25;18;;;41;;
54458;SDS011;40368;49.350;8.152;2023-03-19T04:06:25;16;;;27;;
54458;SDS011;40368;49.350;8.152;2023-03-19T04:07:25;20;;;42;;
54458;SDS011;40368;49.350;8.152;2023-03-19T04:08:25;21;;;40;;
54458;SDS011;40368;49.350;8.152;2023-03-19T04:09:25;19;;;46;;
54458;SDS011;40368;49.350;8.152;2023-03-19T04:10:25;18;;;50;;
54458;SDS011;40368;49.350;8.152;2023-03-19T04:11:25;18;;;43;;
54458;SDS011;40368;49.350;8.152;2023-03-19T04:12:25;20;;;59;;
54458;SDS011;40368;49.350;8.152;2023-03-19T04:13:25;18;;;43;;
54458;SDS011;40368;49.350;8.152;2023-03-19T04:14:25;16;;;56;;
54458;SDS011;40368;49.350;8.152;2023-03-19T04:15:25;18;;;78;;
54458;SDS011;40368;49.350;8.152;2023-03-19T04:16:25;20;;;41;;
54458;SDS011;40368;49.350;8.152;2023-03-19T04:17:25;19;;;62;;
54458;SDS011;40368;49.350;8.152;2023-03-19T04:18:25;16;;;53;;
54458;SDS011;40368;49.350;8.152;2023-03-19T04:19:25;18;;;39;;
54458;SDS011;40368;49.350;8.152;2023-03-19T04:20:25;17;;;39;;
54458;SDS011;40368;49.350;8.152;2023-03-19T04:21:25;16;;;62;;
54458;SDS011;40368;49.350;8.152;2023-03-19T04:22:25;14;;;31;;
54458;SDS011;40368;49.350;8.152;2023-03-19T04:23:25;15;;;53;;
54458;SDS011;40368;49.350;8.152;2023-03-19T04:25:25;18;;;34;;
54458;SDS011;40368;49.350;8.152;2023-03-19T04:26:25;17;;;50;;
54458;SDS011;40368;49.350;8.152;2023-03-19T04:27:25;17;;;40;;
54458;SDS011;40368;49.350;8.152;2023-03-19T04:28:25;17;;;36;;
54458;SDS011;40368;49.350;8.152;2023-03-19T04:29:25;16;;;63;;
54458;SDS011;40368;49.350;8.152;2023-03-19T04:30:25;14;;;40;;
54458;SDS011;40368;49.350;8.152;2023-03-19T04:31:25;14;;;21;;
54458;SDS011;40368;49.350;8.152;2023-03-19T04:32:25;16;;;58;;
54458;SDS011;40368;49.350;8.152;2023-03-19T04:33:25;18;;;71;;
54458;SDS011;40368;49.350;8.152;2023-03-19T04:34:25;21;;;70;;
54458;SDS011;40368;49.350;8.152;2023-03-19T04:35:25;19;;;59;;
54458;SDS011;40368;49.350;8.152;2023-03-19T04:36:25;14;;;21;;
54458;SDS011;40368;49.350;8.152;2023-03-19T04:37:25;18;;;40;;
54458;SDS011;40368;49.350;8.152;2023-03-19T04:38:25;17;;;46;;
54458;SDS011;40368;49.350;8.152;2023-03-19T04:39:25;19;;;74;;
54458;SDS011;40368;49.350;8.152;2023-03-19T04:40:25;18;;;85;;
54458;SDS011;40368;49.350;8.152;2023-03-19T04:41:25;16;;;76;;
54458;SDS011;40368;49.350;8.152;2023-03-19T04:42:25;17;;;56;;
54458;SDS011;40368;49.350;8.152;2023-03-19T04:43:25;15;;;43;;
54458;SDS011;40368;49.350;8.152;2023-03-19T04:44:25;17;;;54;;
54458;SDS011;40368;49.350;8.152;2023-03-19T04:45:25;21;;;54;;
54458;SDS011;40368;49.350;8.152;2023-03-19T04:46:25;18;;;71;;
54458;SDS011;40368;49.350;8.152;2023-03-19T04:47:25;15;;;30;;
54458;SDS011;40368;49.350;8.152;2023-03-19T04:48:25;16;;;37;;
54458;SDS011;40368;49.350;8.152;2023-03-19T04:49:25;17;;;48;;
54458;SDS011;40368;49.350;8.152;2023-03-19T04:50:25;19;;;27;;
54458;SDS011;40368;49.350;8.152;2023-03-19T04:51:25;16;;;46;;
54458;SDS011;40368;49.350;8.152;2023-03-19T04:52:25;16;;;58;;
54458;SDS011;40368;49.350;8.152;2023-03-19T04:53:25;18;;;49;;
54458;SDS011;40368;49.350;8.152;2023-03-19T04:54:25;17;;;67;;
54458;SDS011;40368;49.350;8.152;2023-03-19T04:55:25;15;;;58;;
54458;SDS011;40368;49.350;8.152;2023-03-19T04:56:25;17;;;36;;
54458;SDS011;40368;49.350;8.152;2023-03-19T04:57:25;17;;;43;;
54458;SDS011;40368;49.350;8.152;2023-03-19T04:58:25;15;;;39;;
54458;SDS011;40368;49.350;8.152;2023-03-19T04:59:25;18;;;49;;
54458;SDS011;40368;49.350;8.152;2023-03-19T05:00:25;15;;;38;;
54458;SDS011;40368;49.350;8.152;2023-03-19T05:01:25;17;;;39;;
54458;SDS011;40368;49.350;8.152;2023-03-19T05:02:25;16;;;48;;
54458;SDS011;40368;49.350;8.152;2023-03-19T05:03:25;14;;;26;;
54458;SDS011;40368;49.350;8.152;2023-03-19T05:04:25;15;;;62;;
54458;SDS011;40368;49.350;8.152;2023-03-19T05:05:25;18;;;48;;
54458;SDS011;40368;49.350;8.152;2023-03-19T05:06:25;17;;;36;;
54458;SDS011;40368;49.350;8.152;2023-03-19T05:07:26;16;;;33;;
54458;SDS011;40368;49.350;8.152;2023-03-19T05:08:25;18;;;55;;
54458;SDS011;40368;49.350;8.152;2023-03-19T05:09:25;17;;;41;;
54458;SDS011;40368;49.350;8.152;2023-03-19T05:10:25;18;;;47;;
54458;SDS011;40368;49.350;8.152;2023-03-19T05:11:25;18;;;41;;
54458;SDS011;40368;49.350;8.152;2023-03-19T05:12:25;16;;;29;;
54458;SDS011;40368;49.350;8.152;2023-03-19T05:13:25;18;;;43;;
54458;SDS011;40368;49.350;8.152;2023-03-19T05:14:25;16;;;40;;
54458;SDS011;40368;49.350;8.152;2023-03-19T05:15:25;19;;;33;;
54458;SDS011;40368;49.350;8.152;2023-03-19T05:16:25;20;;;60;;
54458;SDS011;40368;49.350;8.152;2023-03-19T05:17:25;19;;;40;;
54458;SDS011;40368;49.350;8.152;2023-03-19T05:18:25;20;;;40;;
54458;SDS011;40368;49.350;8.152;2023-03-19T05:19:25;21;;;45;;
54458;SDS011;40368;49.350;8.152;2023-03-19T05:20:25;23;;;69;;
54458;SDS011;40368;49.350;8.152;2023-03-19T05:21:25;16;;;32;;
54458;SDS011;40368;49.350;8.152;2023-03-19T05:22:25;17;;;44;;
54458;SDS011;40368;49.350;8.152;2023-03-19T05:23:25;19;;;57;;
54458;SDS011;40368;49.350;8.152;2023-03-19T05:24:25;18;;;44;;
54458;SDS011;40368;49.350;8.152;2023-03-19T05:25:25;22;;;59;;
54458;SDS011;40368;49.350;8.152;2023-03-19T05:26:25;18;;;29;;
54458;SDS011;40368;49.350;8.152;2023-03-19T05:27:25;14;;;37;;
54458;SDS011;40368;49.350;8.152;2023-03-19T05:28:25;17;;;30;;
54458;SDS011;40368;49.350;8.152;2023-03-19T05:29:25;19;;;46;;
54458;SDS011;40368;49.350;8.152;2023-03-19T05:30:25;19;;;51;;
54458;SDS011;40368;49.350;8.152;2023-03-19T05:31:25;19;;;59;;
54458;SDS011;40368;49.350;8.152;2023-03-19T05:32:25;15;;;51;;
54458;SDS011;40368;49.350;8.152;2023-03-19T05:33:25;22;;;69;;
54458;SDS011;40368;49.350;8.152;2023-03-19T05:34:25;18;;;28;;
54458;SDS011;40368;49.350;8.152;2023-03-19T05:35:25;15;;;40;;
54458;SDS011;40368;49.350;8.152;2023-03-19T05:36:25;16;;;47;;
54458;SDS011;40368;49.350;8.152;2023-03-19T05:37:25;15;;;33;;
54458;SDS011;40368;49.350;8.152;2023-03-19T05:38:25;19;;;49;;
54458;SDS011;40368;49.350;8.152;2023-03-19T05:39:25;15;;;42;;
54458;SDS011;40368;49.350;8.152;2023-03-19T05:40:25;17;;;64;;
54458;SDS011;40368;49.350;8.152;2023-03-19T05:41:25;17;;;41;;
54458;SDS011;40368;49.350;8.152;2023-03-19T05:42:25;15;;;32;;
54458;SDS011;40368;49.350;8.152;2023-03-19T05:43:25;17;;;36;;
54458;SDS011;40368;49.350;8.152;2023-03-19T05:44:25;18;;;23;;
54458;SDS011;40368;49.350;8.152;2023-03-19T05:45:25;15;;;37;;
54458;SDS011;40368;49.350;8.152;2023-03-19T05:46:25;21;;;52;;
54458;SDS011;40368;49.350;8.152;2023-03-19T05:47:25;17;;;29;;
54458;SDS011;40368;49.350;8.152;2023-03-19T05:48:25;17;;;27;;
54458;SDS011;40368;49.350;8.152;2023-03-19T05:49:25;15;;;47;;
54458;SDS011;40368;49.350;8.152;2023-03-19T05:50:25;17;;;27;;
54458;SDS011;40368;49.350;8.152;2023-03-19T05:51:25;17;;;51;;
54458;SDS011;40368;49.350;8.152;2023-03-19T05:52:25;19;;;67;;
54458;SDS011;40368;49.350;8.152;2023-03-19T05:53:25;20;;;45;;
54458;SDS011;40368;49.350;8.152;2023-03-19T05:54:25;15;;;38;;
54458;SDS011;40368;49.350;8.152;2023-03-19T05:55:25;19;;;38;;
54458;SDS011;40368;49.350;8.152;2023-03-19T05:56:25;18;;;49;;
54458;SDS011;40368;49.350;8.152;2023-03-19T05:57:25;16;;;38;;
54458;SDS011;40368;49.350;8.152;2023-03-19T05:58:25;18;;;29;;
54458;SDS011;40368;49.350;8.152;2023-03-19T05:59:25;16;;;30;;
54458;SDS011;40368;49.350;8.152;2023-03-19T06:00:25;16;;;43;;
54458;SDS011;40368;49.350;8.152;2023-03-19T06:01:25;16;;;59;;
54458;SDS011;40368;49.350;8.152;2023-03-19T06:02:25;17;;;39;;
54458;SDS011;40368;49.350;8.152;2023-03-19T06:03:25;16;;;48;;
54458;SDS011;40368;49.350;8.152;2023-03-19T06:04:25;17;;;56;;
54458;SDS011;40368;49.350;8.152;2023-03-19T06:05:25;21;;;55;;
54458;SDS011;40368;49.350;8.152;2023-03-19T06:06:25;17;;;36;;
54458;SDS011;40368;49.350;8.152;2023-03-19T06:07:25;18;;;41;;
54458;SDS011;40368;49.350;8.152;2023-03-19T06:08:25;20;;;71;;
54458;SDS011;40368;49.350;8.152;2023-03-19T06:09:25;18;;;35;;
54458;SDS011;40368;49.350;8.152;2023-03-19T06:10:25;19;;;49;;
54458;SDS011;40368;49.350;8.152;2023-03-19T06:11:25;18;;;46;;
54458;SDS011;40368;49.350;8.152;2023-03-19T06:12:25;19;;;74;;
54458;SDS011;40368;49.350;8.152;2023-03-19T06:13:25;17;;;28;;
54458;SDS011;40368;49.350;8.152;2023-03-19T06:14:25;17;;;39;;
54458;SDS011;40368;49.350;8.152;2023-03-19T06:15:25;17;;;26;;
54458;SDS011;40368;49.350;8.152;2023-03-19T06:16:25;20;;;91;;
54458;SDS011;40368;49.350;8.152;2023-03-19T06:17:26;19;;;58;;
54458;SDS011;40368;49.350;8.152;2023-03-19T06:18:25;17;;;27;;
54458;SDS011;40368;49.350;8.152;2023-03-19T06:19:25;17;;;23;;
54458;SDS011;40368;49.350;8.152;2023-03-19T06:20:25;19;;;67;;
54458;SDS011;40368;49.350;8.152;2023-03-19T06:21:25;16;;;42;;
54458;SDS011;40368;49.350;8.152;2023-03-19T06:22:25;16;;;38;;
54458;SDS011;40368;49.350;8.152;2023-03-19T06:23:25;17;;;51;;
54458;SDS011;40368;49.350;8.152;2023-03-19T06:24:25;17;;;42;;
54458;SDS011;40368;49.350;8.152;2023-03-19T06:25:25;19;;;52;;
54458;SDS011;40368;49.350;8.152;2023-03-19T06:26:25;18;;;49;;
54458;SDS011;40368;49.350;8.152;2023-03-19T06:27:25;19;;;76;;
54458;SDS011;40368;49.350;8.152;2023-03-19T06:28:25;17;;;37;;
54458;SDS011;40368;49.350;8.152;2023-03-19T06:29:25;20;;;42;;
54458;SDS011;40368;49.350;8.152;2023-03-19T06:30:25;18;;;29;;
54458;SDS011;40368;49.350;8.152;2023-03-19T06:31:25;16;;;24;;